Main page
METAR-TAF:

METAR-TAF

Airports :

Kish International Airport

Kish, Iran

latitude: 26-31-36N, longitude: 053-58-54E, elevation: 30 m

Current weather observation

The report was made 1 hour and 7 minutes ago, at 07:00 UTC
Wind 16 kt from the Northwest
Temperature 33°C
Humidity 75%
Pressure 1000 hPa
Visibility: 6000 m

METAR: OIBK 250700Z 31016KT 6000 NSC 33/28 Q1000

Time: 12:37 (08:07 UTC)

Forecast

The report was made 2 hours and 37 minutes ago, at 05:30 UTC
Forecast valid from 25 at 06 UTC to 26 at 12 UTC
Wind 16 kt from the West/Northwest
Visibility: 4000 m
haze
Temporary
from 25 at 06 UTC to 25 at 15 UTC
Wind 21 kt from the West
Visibility: 3000 m
sand
Becoming
from 25 at 22 UTC to 25 at 24 UTC
Visibility: 3000 m
Becoming
from 26 at 04 UTC to 26 at 06 UTC
Visibility: 5000 m
haze
Temporary
from 26 at 09 UTC to 26 at 12 UTC
Visibility: 3000 m
sand

TAF: OIBK 250530Z 2506/2612 30008MPS 4000 HZ NSC TEMPO 2506/2515 27011MPS 3000 SA BECMG 2522/2524 3000 HZ/BR BECMG 2604/2606 5000 HZ TEMPO 2609/2612 3000 SA

Weather observations and forecasts of more than 4000 airports (METAR and TAF reports).

The available stations are represented by yellow and red dots on the map.

Hover mouse over dot to see the name of the station.

Then click to see weather observations and forecasts.

To change the map : click on the green buttons with a black cross to zoom in, on the green button with a dash to zoom out, or on the green arrows for adjacent maps.


METAR-TAF: